Impacts METAR Board
IDs:

KBNA - Nashville Intl, TN, US

Updated at: 1800 UTC 07 Dec 2021
Potential Impact None Slight Moderate High
Time 07/06Z 07/07Z 07/08Z 07/09Z 07/10Z 07/11Z 07/12Z 07/13Z 07/14Z 07/15Z 07/16Z 07/17Z 07/18Z
Temp33 32 33 31 31 30 29 30 33 36 39 41 42
Dewpt21 21 22 21 20 20 20 20 22 19 16 16 13
Altim30.26 30.25 30.26 30.26 30.25 30.25 30.26 30.26 30.27 30.29 30.29 30.26 30.22
VIS10 10 10 10 10 10 10 10 10 10 10 10 10
CIG-- -- -- -- -- -- -- -- -- -- -- 250 250
CoverCLRFEWCLRSCTSCTSCTFEWSCTSCTSCTSCTBKNBKN
FltCatVFRVFRVFRVFRVFRVFRVFRVFRVFRVFRVFRVFRVFR
WX--------------------------
WDir20103005040505060120705060
WSpd4 5 3 3 5 6 6 5 5 7 8 8 6
WGst-- -- -- -- -- -- -- -- -- -- -- -- --
R02/20
XWnd -0 1 -1 VRB -3 -2 -3 -3 -3 -7 -6 -4 -4
HWnd 4 5 3 VRB 4 6 5 4 4 -1 5 7 4
R13/31
XWnd 4 4 3 VRB 5 6 6 5 5 2 7 8 6
HWnd -2 -3 -1 VRB 1 -0 1 1 1 7 4 1 2
Raw hourly METARs
KBNA 070553Z 02004KT 10SM CLR 01/M06 A3026 RMK AO2 SLP247 T00061061 10039 20006 402000006 58006
KBNA 070653Z 01005KT 10SM FEW250 00/M06 A3025 RMK AO2 SLP247 T00001061
KBNA 070753Z 03003KT 10SM CLR 01/M06 A3026 RMK AO2 SLP250 T00061056
KBNA 070853Z VRB03KT 10SM SCT250 M01/M06 A3026 RMK AO2 SLP250 T10061061 53002
KBNA 070953Z 05005KT 10SM SCT250 M01/M07 A3025 RMK AO2 SLP248 T10061067
KBNA 071053Z 04006KT 10SM SCT250 M01/M07 A3025 RMK AO2 SLP248 T10111067
KBNA 071153Z 05006KT 10SM FEW250 M02/M07 A3026 RMK AO2 SLP250 70125 T10171067 10011 21017 55002
KBNA 071253Z 05005KT 10SM SCT250 M01/M07 A3026 RMK AO2 SLP250 T10111067
KBNA 071353Z 06005KT 10SM SCT250 01/M06 A3027 RMK AO2 SLP253 T00061056
KBNA 071453Z 12007KT 10SM SCT250 02/M07 A3029 RMK AO2 SLP260 T00221072 53011
KBNA 071553Z 07008KT 10SM SCT250 04/M09 A3029 RMK AO2 SLP260 T00391089
KBNA 071653Z 05008KT 10SM FEW200 BKN250 05/M09 A3026 RMK AO2 PRESFR SLP249 T00501089
KBNA 071753Z 06006KT 10SM BKN250 06/M11 A3022 RMK AO2 SLP235 T00561106 10056 21017 58024



Page loaded:  18:54 UTC  |   10:54 AM Pacific  |   11:54 AM Mountain  |   12:54 PM Central  |   01:54 PM Eastern

 

ADVISORIES

FORECASTS

FORECASTS

OBSERVATIONS

USER TOOLS

ABOUT US